sensor_id;sensor_type;location;lat;lon;timestamp;P1;durP1;ratioP1;P2;durP2;ratioP2
12812;SDS011;6471;50.932;6.934;2023-06-26T00:00:46;3.60;;;3.27;;
12812;SDS011;6471;50.932;6.934;2023-06-26T00:03:22;3.10;;;2.80;;
12812;SDS011;6471;50.932;6.934;2023-06-26T00:08:38;3.63;;;3.00;;
12812;SDS011;6471;50.932;6.934;2023-06-26T00:11:11;3.50;;;3.20;;
12812;SDS011;6471;50.932;6.934;2023-06-26T00:13:37;4.03;;;3.40;;
12812;SDS011;6471;50.932;6.934;2023-06-26T00:16:23;3.20;;;2.90;;
12812;SDS011;6471;50.932;6.934;2023-06-26T00:18:53;3.10;;;2.80;;
12812;SDS011;6471;50.932;6.934;2023-06-26T00:21:38;3.30;;;3.00;;
12812;SDS011;6471;50.932;6.934;2023-06-26T00:28:21;3.37;;;3.07;;
12812;SDS011;6471;50.932;6.934;2023-06-26T00:31:16;3.53;;;3.23;;
12812;SDS011;6471;50.932;6.934;2023-06-26T00:33:42;3.10;;;2.80;;
12812;SDS011;6471;50.932;6.934;2023-06-26T00:36:08;3.63;;;3.20;;
12812;SDS011;6471;50.932;6.934;2023-06-26T00:38:34;4.53;;;4.03;;
12812;SDS011;6471;50.932;6.934;2023-06-26T00:41:01;3.63;;;3.33;;
12812;SDS011;6471;50.932;6.934;2023-06-26T00:43:30;4.33;;;3.57;;
12812;SDS011;6471;50.932;6.934;2023-06-26T00:46:06;3.37;;;3.07;;
12812;SDS011;6471;50.932;6.934;2023-06-26T00:48:34;4.00;;;3.53;;
12812;SDS011;6471;50.932;6.934;2023-06-26T00:51:06;3.70;;;3.40;;
12812;SDS011;6471;50.932;6.934;2023-06-26T00:53:36;3.80;;;3.40;;
12812;SDS011;6471;50.932;6.934;2023-06-26T00:56:14;3.83;;;3.47;;
12812;SDS011;6471;50.932;6.934;2023-06-26T00:58:40;3.90;;;3.40;;
12812;SDS011;6471;50.932;6.934;2023-06-26T01:01:07;4.03;;;3.43;;
12812;SDS011;6471;50.932;6.934;2023-06-26T01:03:33;3.40;;;3.10;;
12812;SDS011;6471;50.932;6.934;2023-06-26T01:06:07;3.87;;;3.47;;
12812;SDS011;6471;50.932;6.934;2023-06-26T01:08:37;4.20;;;3.80;;
12812;SDS011;6471;50.932;6.934;2023-06-26T01:11:07;4.17;;;3.73;;
12812;SDS011;6471;50.932;6.934;2023-06-26T01:13:33;3.80;;;3.50;;
12812;SDS011;6471;50.932;6.934;2023-06-26T01:16:03;3.47;;;3.17;;
12812;SDS011;6471;50.932;6.934;2023-06-26T01:18:30;5.70;;;3.70;;
12812;SDS011;6471;50.932;6.934;2023-06-26T01:21:06;4.50;;;4.10;;
12812;SDS011;6471;50.932;6.934;2023-06-26T01:26:34;5.80;;;4.50;;
12812;SDS011;6471;50.932;6.934;2023-06-26T01:29:02;4.80;;;4.30;;
12812;SDS011;6471;50.932;6.934;2023-06-26T01:31:29;4.47;;;4.07;;
12812;SDS011;6471;50.932;6.934;2023-06-26T01:34:03;4.80;;;4.23;;
12812;SDS011;6471;50.932;6.934;2023-06-26T01:36:32;4.50;;;3.93;;
12812;SDS011;6471;50.932;6.934;2023-06-26T01:38:58;4.47;;;3.97;;
12812;SDS011;6471;50.932;6.934;2023-06-26T01:41:24;4.40;;;3.80;;
12812;SDS011;6471;50.932;6.934;2023-06-26T01:44:07;4.37;;;3.87;;
12812;SDS011;6471;50.932;6.934;2023-06-26T01:51:47;3.97;;;3.57;;
12812;SDS011;6471;50.932;6.934;2023-06-26T01:54:18;4.37;;;3.87;;
12812;SDS011;6471;50.932;6.934;2023-06-26T01:56:45;4.87;;;3.77;;
12812;SDS011;6471;50.932;6.934;2023-06-26T01:59:17;4.13;;;3.73;;
12812;SDS011;6471;50.932;6.934;2023-06-26T02:01:51;4.57;;;3.90;;
12812;SDS011;6471;50.932;6.934;2023-06-26T02:04:43;4.73;;;3.93;;
12812;SDS011;6471;50.932;6.934;2023-06-26T02:07:16;5.20;;;3.80;;
12812;SDS011;6471;50.932;6.934;2023-06-26T02:09:42;3.60;;;3.30;;
12812;SDS011;6471;50.932;6.934;2023-06-26T02:12:14;4.43;;;4.03;;
12812;SDS011;6471;50.932;6.934;2023-06-26T02:14:40;4.27;;;3.83;;
12812;SDS011;6471;50.932;6.934;2023-06-26T02:17:06;4.10;;;3.70;;
12812;SDS011;6471;50.932;6.934;2023-06-26T02:25:32;4.57;;;3.90;;
12812;SDS011;6471;50.932;6.934;2023-06-26T02:31:26;4.37;;;3.77;;
12812;SDS011;6471;50.932;6.934;2023-06-26T02:34:12;4.20;;;3.80;;
12812;SDS011;6471;50.932;6.934;2023-06-26T02:36:41;3.83;;;3.50;;
12812;SDS011;6471;50.932;6.934;2023-06-26T02:39:09;4.00;;;3.60;;
12812;SDS011;6471;50.932;6.934;2023-06-26T02:41:58;3.90;;;3.50;;
12812;SDS011;6471;50.932;6.934;2023-06-26T02:44:25;4.20;;;3.80;;
12812;SDS011;6471;50.932;6.934;2023-06-26T02:56:16;5.03;;;4.53;;
12812;SDS011;6471;50.932;6.934;2023-06-26T03:08:25;4.13;;;3.70;;
12812;SDS011;6471;50.932;6.934;2023-06-26T03:11:01;3.90;;;3.43;;
12812;SDS011;6471;50.932;6.934;2023-06-26T03:13:36;4.50;;;3.90;;
12812;SDS011;6471;50.932;6.934;2023-06-26T03:16:12;4.00;;;3.60;;
12812;SDS011;6471;50.932;6.934;2023-06-26T03:18:38;4.00;;;3.60;;
12812;SDS011;6471;50.932;6.934;2023-06-26T03:21:08;3.87;;;3.47;;
12812;SDS011;6471;50.932;6.934;2023-06-26T03:23:37;3.93;;;3.50;;
12812;SDS011;6471;50.932;6.934;2023-06-26T03:26:09;4.17;;;3.67;;
12812;SDS011;6471;50.932;6.934;2023-06-26T03:28:35;4.07;;;3.67;;
12812;SDS011;6471;50.932;6.934;2023-06-26T03:31:01;4.03;;;3.60;;
12812;SDS011;6471;50.932;6.934;2023-06-26T03:33:30;4.47;;;3.93;;
12812;SDS011;6471;50.932;6.934;2023-06-26T03:35:56;4.30;;;3.90;;
12812;SDS011;6471;50.932;6.934;2023-06-26T03:38:25;4.23;;;3.83;;
12812;SDS011;6471;50.932;6.934;2023-06-26T03:44:16;5.17;;;4.67;;
12812;SDS011;6471;50.932;6.934;2023-06-26T04:30:47;6.27;;;4.23;;
12812;SDS011;6471;50.932;6.934;2023-06-26T04:33:18;4.97;;;4.33;;
12812;SDS011;6471;50.932;6.934;2023-06-26T04:36:48;6.80;;;4.73;;
12812;SDS011;6471;50.932;6.934;2023-06-26T04:39:29;6.30;;;4.50;;
12812;SDS011;6471;50.932;6.934;2023-06-26T04:42:03;7.60;;;4.53;;
12812;SDS011;6471;50.932;6.934;2023-06-26T04:45:08;7.93;;;4.63;;
12812;SDS011;6471;50.932;6.934;2023-06-26T05:16:37;6.57;;;4.17;;
12812;SDS011;6471;50.932;6.934;2023-06-26T05:19:22;5.63;;;4.37;;
12812;SDS011;6471;50.932;6.934;2023-06-26T05:21:58;8.03;;;4.40;;
12812;SDS011;6471;50.932;6.934;2023-06-26T05:24:44;6.70;;;4.33;;
12812;SDS011;6471;50.932;6.934;2023-06-26T05:27:27;6.80;;;4.10;;
12812;SDS011;6471;50.932;6.934;2023-06-26T05:33:00;6.73;;;4.17;;
12812;SDS011;6471;50.932;6.934;2023-06-26T05:35:37;7.17;;;4.00;;
12812;SDS011;6471;50.932;6.934;2023-06-26T05:44:20;7.30;;;4.40;;
12812;SDS011;6471;50.932;6.934;2023-06-26T05:46:47;6.83;;;4.20;;
12812;SDS011;6471;50.932;6.934;2023-06-26T05:49:30;5.93;;;4.03;;
12812;SDS011;6471;50.932;6.934;2023-06-26T05:55:23;7.30;;;4.20;;
12812;SDS011;6471;50.932;6.934;2023-06-26T06:03:53;6.53;;;4.20;;
12812;SDS011;6471;50.932;6.934;2023-06-26T06:06:34;8.07;;;4.63;;
12812;SDS011;6471;50.932;6.934;2023-06-26T06:09:00;6.77;;;4.23;;
12812;SDS011;6471;50.932;6.934;2023-06-26T06:11:26;6.67;;;4.03;;
12812;SDS011;6471;50.932;6.934;2023-06-26T06:17:23;7.70;;;3.97;;
12812;SDS011;6471;50.932;6.934;2023-06-26T06:58:56;5.20;;;3.93;;
12812;SDS011;6471;50.932;6.934;2023-06-26T07:01:47;8.37;;;4.00;;
12812;SDS011;6471;50.932;6.934;2023-06-26T07:45:19;8.63;;;4.40;;
12812;SDS011;6471;50.932;6.934;2023-06-26T07:51:08;7.40;;;3.60;;
12812;SDS011;6471;50.932;6.934;2023-06-26T07:59:42;6.10;;;3.70;;
12812;SDS011;6471;50.932;6.934;2023-06-26T08:02:32;8.43;;;4.20;;
12812;SDS011;6471;50.932;6.934;2023-06-26T08:08:22;5.80;;;3.50;;
12812;SDS011;6471;50.932;6.934;2023-06-26T08:13:41;5.73;;;3.30;;
12812;SDS011;6471;50.932;6.934;2023-06-26T08:21:36;4.10;;;3.17;;
12812;SDS011;6471;50.932;6.934;2023-06-26T08:24:05;5.55;;;3.20;;
12812;SDS011;6471;50.932;6.934;2023-06-26T08:26:47;6.82;;;3.40;;
12812;SDS011;6471;50.932;6.934;2023-06-26T08:29:30;6.90;;;3.78;;
12812;SDS011;6471;50.932;6.934;2023-06-26T08:32:09;5.85;;;3.80;;
12812;SDS011;6471;50.932;6.934;2023-06-26T08:34:39;8.93;;;4.10;;
12812;SDS011;6471;50.932;6.934;2023-06-26T08:37:06;5.60;;;3.92;;
12812;SDS011;6471;50.932;6.934;2023-06-26T08:39:53;8.00;;;3.83;;
12812;SDS011;6471;50.932;6.934;2023-06-26T08:42:40;8.73;;;3.63;;
12812;SDS011;6471;50.932;6.934;2023-06-26T08:45:15;8.20;;;4.20;;
12812;SDS011;6471;50.932;6.934;2023-06-26T08:54:06;6.88;;;3.75;;
12812;SDS011;6471;50.932;6.934;2023-06-26T09:00:08;5.03;;;3.30;;
12812;SDS011;6471;50.932;6.934;2023-06-26T09:05:34;7.18;;;3.30;;
12812;SDS011;6471;50.932;6.934;2023-06-26T09:11:05;7.45;;;3.67;;
12812;SDS011;6471;50.932;6.934;2023-06-26T09:13:37;6.63;;;3.30;;
12812;SDS011;6471;50.932;6.934;2023-06-26T09:16:06;6.90;;;3.72;;
12812;SDS011;6471;50.932;6.934;2023-06-26T09:21:43;11.52;;;3.85;;
12812;SDS011;6471;50.932;6.934;2023-06-26T09:24:13;9.05;;;4.00;;
12812;SDS011;6471;50.932;6.934;2023-06-26T09:26:40;8.90;;;3.67;;
12812;SDS011;6471;50.932;6.934;2023-06-26T09:29:21;8.15;;;4.13;;
12812;SDS011;6471;50.932;6.934;2023-06-26T09:31:52;8.57;;;4.03;;
12812;SDS011;6471;50.932;6.934;2023-06-26T09:34:34;7.15;;;3.50;;
12812;SDS011;6471;50.932;6.934;2023-06-26T09:37:12;8.98;;;4.05;;
12812;SDS011;6471;50.932;6.934;2023-06-26T09:40:06;5.05;;;3.00;;
12812;SDS011;6471;50.932;6.934;2023-06-26T09:46:04;8.13;;;3.70;;
12812;SDS011;6471;50.932;6.934;2023-06-26T09:48:48;7.35;;;4.35;;
12812;SDS011;6471;50.932;6.934;2023-06-26T09:51:22;5.63;;;3.17;;
12812;SDS011;6471;50.932;6.934;2023-06-26T09:53:49;16.55;;;4.50;;
12812;SDS011;6471;50.932;6.934;2023-06-26T09:56:33;10.75;;;3.80;;
12812;SDS011;6471;50.932;6.934;2023-06-26T09:59:15;6.30;;;3.40;;
12812;SDS011;6471;50.932;6.934;2023-06-26T10:01:45;5.28;;;3.20;;
12812;SDS011;6471;50.932;6.934;2023-06-26T10:04:26;7.15;;;3.38;;
12812;SDS011;6471;50.932;6.934;2023-06-26T10:12:45;5.93;;;3.05;;
12812;SDS011;6471;50.932;6.934;2023-06-26T10:24:23;6.40;;;3.22;;
12812;SDS011;6471;50.932;6.934;2023-06-26T10:26:54;8.05;;;3.33;;
12812;SDS011;6471;50.932;6.934;2023-06-26T10:30:30;10.13;;;3.15;;
12812;SDS011;6471;50.932;6.934;2023-06-26T10:32:42;7.70;;;3.17;;
12812;SDS011;6471;50.932;6.934;2023-06-26T10:35:11;5.07;;;2.80;;
12812;SDS011;6471;50.932;6.934;2023-06-26T10:37:50;5.30;;;2.63;;
12812;SDS011;6471;50.932;6.934;2023-06-26T10:40:26;8.63;;;2.65;;
12812;SDS011;6471;50.932;6.934;2023-06-26T10:43:05;5.78;;;3.17;;
12812;SDS011;6471;50.932;6.934;2023-06-26T10:45:32;5.28;;;3.20;;
12812;SDS011;6471;50.932;6.934;2023-06-26T10:47:59;4.85;;;2.85;;
12812;SDS011;6471;50.932;6.934;2023-06-26T10:50:29;6.70;;;3.00;;
12812;SDS011;6471;50.932;6.934;2023-06-26T11:03:39;5.45;;;2.70;;
12812;SDS011;6471;50.932;6.934;2023-06-26T11:06:11;5.50;;;2.93;;
12812;SDS011;6471;50.932;6.934;2023-06-26T11:08:44;5.50;;;2.88;;
12812;SDS011;6471;50.932;6.934;2023-06-26T11:11:11;4.53;;;2.20;;
12812;SDS011;6471;50.932;6.934;2023-06-26T11:13:46;5.10;;;2.30;;
12812;SDS011;6471;50.932;6.934;2023-06-26T11:16:16;4.15;;;2.40;;
12812;SDS011;6471;50.932;6.934;2023-06-26T11:18:44;3.38;;;2.30;;
12812;SDS011;6471;50.932;6.934;2023-06-26T11:21:11;4.40;;;2.28;;
12812;SDS011;6471;50.932;6.934;2023-06-26T11:23:41;5.90;;;2.60;;
12812;SDS011;6471;50.932;6.934;2023-06-26T11:26:25;7.35;;;2.65;;
12812;SDS011;6471;50.932;6.934;2023-06-26T11:28:54;4.95;;;2.90;;
12812;SDS011;6471;50.932;6.934;2023-06-26T11:31:41;5.78;;;2.75;;
12812;SDS011;6471;50.932;6.934;2023-06-26T11:34:11;6.97;;;2.88;;
12812;SDS011;6471;50.932;6.934;2023-06-26T11:36:38;5.13;;;2.22;;
12812;SDS011;6471;50.932;6.934;2023-06-26T11:39:06;4.65;;;2.40;;
12812;SDS011;6471;50.932;6.934;2023-06-26T11:41:39;3.72;;;2.33;;
12812;SDS011;6471;50.932;6.934;2023-06-26T11:44:13;2.95;;;2.30;;
12812;SDS011;6471;50.932;6.934;2023-06-26T11:46:50;7.03;;;2.80;;
12812;SDS011;6471;50.932;6.934;2023-06-26T11:49:26;5.65;;;2.53;;
12812;SDS011;6471;50.932;6.934;2023-06-26T11:51:58;7.53;;;2.80;;
12812;SDS011;6471;50.932;6.934;2023-06-26T11:54:25;13.55;;;3.35;;
12812;SDS011;6471;50.932;6.934;2023-06-26T11:56:52;9.65;;;3.25;;
12812;SDS011;6471;50.932;6.934;2023-06-26T11:59:18;4.72;;;2.35;;
12812;SDS011;6471;50.932;6.934;2023-06-26T12:01:57;5.15;;;2.53;;
12812;SDS011;6471;50.932;6.934;2023-06-26T12:04:23;6.43;;;2.58;;
12812;SDS011;6471;50.932;6.934;2023-06-26T12:06:50;5.72;;;2.35;;
12812;SDS011;6471;50.932;6.934;2023-06-26T12:09:20;5.25;;;1.90;;
12812;SDS011;6471;50.932;6.934;2023-06-26T12:11:51;5.72;;;2.05;;
12812;SDS011;6471;50.932;6.934;2023-06-26T12:14:27;6.82;;;2.20;;
12812;SDS011;6471;50.932;6.934;2023-06-26T12:16:53;4.80;;;1.80;;
12812;SDS011;6471;50.932;6.934;2023-06-26T12:19:26;4.40;;;2.15;;
12812;SDS011;6471;50.932;6.934;2023-06-26T12:21:55;3.83;;;1.98;;
12812;SDS011;6471;50.932;6.934;2023-06-26T12:24:24;4.88;;;2.42;;
12812;SDS011;6471;50.932;6.934;2023-06-26T12:26:54;8.70;;;2.88;;
12812;SDS011;6471;50.932;6.934;2023-06-26T12:29:32;9.88;;;2.92;;
12812;SDS011;6471;50.932;6.934;2023-06-26T12:31:59;9.27;;;2.55;;
12812;SDS011;6471;50.932;6.934;2023-06-26T12:34:32;7.35;;;2.47;;
12812;SDS011;6471;50.932;6.934;2023-06-26T12:37:02;6.80;;;2.13;;
12812;SDS011;6471;50.932;6.934;2023-06-26T12:39:49;7.57;;;2.50;;
12812;SDS011;6471;50.932;6.934;2023-06-26T12:42:16;8.65;;;2.65;;
12812;SDS011;6471;50.932;6.934;2023-06-26T12:44:50;4.13;;;2.47;;
12812;SDS011;6471;50.932;6.934;2023-06-26T12:47:17;5.88;;;2.08;;
12812;SDS011;6471;50.932;6.934;2023-06-26T12:49:50;5.93;;;2.10;;
12812;SDS011;6471;50.932;6.934;2023-06-26T12:52:22;5.13;;;2.30;;
12812;SDS011;6471;50.932;6.934;2023-06-26T12:54:51;6.90;;;1.92;;
12812;SDS011;6471;50.932;6.934;2023-06-26T12:57:18;5.53;;;2.00;;
12812;SDS011;6471;50.932;6.934;2023-06-26T12:59:44;4.75;;;1.60;;
12812;SDS011;6471;50.932;6.934;2023-06-26T13:02:10;3.20;;;1.90;;
12812;SDS011;6471;50.932;6.934;2023-06-26T13:04:40;3.97;;;2.10;;
12812;SDS011;6471;50.932;6.934;2023-06-26T13:07:28;3.83;;;1.75;;
12812;SDS011;6471;50.932;6.934;2023-06-26T13:10:17;4.93;;;1.70;;
12812;SDS011;6471;50.932;6.934;2023-06-26T13:12:43;5.20;;;2.10;;
12812;SDS011;6471;50.932;6.934;2023-06-26T13:15:11;6.43;;;1.90;;
12812;SDS011;6471;50.932;6.934;2023-06-26T13:17:37;3.58;;;2.00;;
12812;SDS011;6471;50.932;6.934;2023-06-26T13:20:07;2.60;;;1.80;;
12812;SDS011;6471;50.932;6.934;2023-06-26T13:22:36;3.88;;;1.88;;
12812;SDS011;6471;50.932;6.934;2023-06-26T13:25:02;7.05;;;2.13;;
12812;SDS011;6471;50.932;6.934;2023-06-26T13:27:28;9.32;;;2.15;;
12812;SDS011;6471;50.932;6.934;2023-06-26T13:29:57;6.10;;;1.80;;
12812;SDS011;6471;50.932;6.934;2023-06-26T13:32:30;6.03;;;1.80;;
12812;SDS011;6471;50.932;6.934;2023-06-26T13:34:59;6.45;;;1.90;;
12812;SDS011;6471;50.932;6.934;2023-06-26T13:37:25;12.73;;;2.35;;
12812;SDS011;6471;50.932;6.934;2023-06-26T13:39:52;4.90;;;1.75;;
12812;SDS011;6471;50.932;6.934;2023-06-26T13:42:20;2.90;;;1.48;;
12812;SDS011;6471;50.932;6.934;2023-06-26T13:44:46;1.92;;;1.35;;
12812;SDS011;6471;50.932;6.934;2023-06-26T13:47:16;2.00;;;1.60;;
12812;SDS011;6471;50.932;6.934;2023-06-26T13:49:45;6.10;;;1.83;;
12812;SDS011;6471;50.932;6.934;2023-06-26T13:52:11;4.75;;;1.70;;
12812;SDS011;6471;50.932;6.934;2023-06-26T13:54:37;4.50;;;1.50;;
12812;SDS011;6471;50.932;6.934;2023-06-26T13:57:05;4.57;;;2.00;;
12812;SDS011;6471;50.932;6.934;2023-06-26T13:59:31;5.90;;;1.58;;
12812;SDS011;6471;50.932;6.934;2023-06-26T14:02:00;2.50;;;1.50;;
12812;SDS011;6471;50.932;6.934;2023-06-26T14:04:26;3.33;;;1.60;;
12812;SDS011;6471;50.932;6.934;2023-06-26T14:06:52;3.70;;;1.57;;
12812;SDS011;6471;50.932;6.934;2023-06-26T14:09:18;4.82;;;1.65;;
12812;SDS011;6471;50.932;6.934;2023-06-26T14:11:44;3.10;;;1.50;;
12812;SDS011;6471;50.932;6.934;2023-06-26T14:14:10;2.47;;;1.30;;
12812;SDS011;6471;50.932;6.934;2023-06-26T14:16:36;2.90;;;1.45;;
12812;SDS011;6471;50.932;6.934;2023-06-26T14:19:05;5.43;;;1.50;;
12812;SDS011;6471;50.932;6.934;2023-06-26T14:21:43;2.10;;;1.40;;
12812;SDS011;6471;50.932;6.934;2023-06-26T14:24:31;3.63;;;1.35;;
12812;SDS011;6471;50.932;6.934;2023-06-26T14:27:09;3.67;;;1.48;;
12812;SDS011;6471;50.932;6.934;2023-06-26T14:29:38;4.30;;;1.70;;
12812;SDS011;6471;50.932;6.934;2023-06-26T14:32:43;3.10;;;1.50;;
12812;SDS011;6471;50.932;6.934;2023-06-26T14:35:09;3.22;;;1.80;;
12812;SDS011;6471;50.932;6.934;2023-06-26T14:37:38;2.95;;;1.80;;
12812;SDS011;6471;50.932;6.934;2023-06-26T14:40:05;2.10;;;1.60;;
12812;SDS011;6471;50.932;6.934;2023-06-26T14:42:34;5.75;;;1.88;;
12812;SDS011;6471;50.932;6.934;2023-06-26T14:45:00;4.18;;;1.90;;
12812;SDS011;6471;50.932;6.934;2023-06-26T14:47:27;4.40;;;1.80;;
12812;SDS011;6471;50.932;6.934;2023-06-26T14:49:53;3.00;;;1.67;;
12812;SDS011;6471;50.932;6.934;2023-06-26T14:52:19;3.22;;;2.10;;
12812;SDS011;6471;50.932;6.934;2023-06-26T14:54:45;3.03;;;1.70;;
12812;SDS011;6471;50.932;6.934;2023-06-26T14:57:11;3.70;;;1.90;;
12812;SDS011;6471;50.932;6.934;2023-06-26T14:59:37;4.70;;;2.10;;
12812;SDS011;6471;50.932;6.934;2023-06-26T15:02:03;7.00;;;2.22;;
12812;SDS011;6471;50.932;6.934;2023-06-26T15:04:29;4.70;;;1.95;;
12812;SDS011;6471;50.932;6.934;2023-06-26T15:06:56;6.78;;;2.22;;
12812;SDS011;6471;50.932;6.934;2023-06-26T15:09:23;3.83;;;2.00;;
12812;SDS011;6471;50.932;6.934;2023-06-26T15:11:49;4.73;;;1.60;;
12812;SDS011;6471;50.932;6.934;2023-06-26T15:14:15;1.70;;;1.47;;
12812;SDS011;6471;50.932;6.934;2023-06-26T15:16:41;3.57;;;1.73;;
12812;SDS011;6471;50.932;6.934;2023-06-26T15:19:07;6.67;;;1.93;;
12812;SDS011;6471;50.932;6.934;2023-06-26T15:21:34;5.33;;;1.73;;
12812;SDS011;6471;50.932;6.934;2023-06-26T15:24:00;5.93;;;1.80;;
12812;SDS011;6471;50.932;6.934;2023-06-26T15:26:26;7.13;;;2.10;;
12812;SDS011;6471;50.932;6.934;2023-06-26T15:28:52;5.87;;;1.60;;
12812;SDS011;6471;50.932;6.934;2023-06-26T15:31:19;6.83;;;1.97;;
12812;SDS011;6471;50.932;6.934;2023-06-26T15:33:54;3.77;;;1.60;;
12812;SDS011;6471;50.932;6.934;2023-06-26T15:36:26;6.43;;;1.80;;
12812;SDS011;6471;50.932;6.934;2023-06-26T15:38:58;6.97;;;1.60;;
12812;SDS011;6471;50.932;6.934;2023-06-26T15:41:24;4.27;;;1.60;;
12812;SDS011;6471;50.932;6.934;2023-06-26T15:43:50;3.93;;;1.60;;
12812;SDS011;6471;50.932;6.934;2023-06-26T15:46:16;4.10;;;1.70;;
12812;SDS011;6471;50.932;6.934;2023-06-26T15:48:42;4.07;;;1.57;;
12812;SDS011;6471;50.932;6.934;2023-06-26T15:51:09;4.13;;;1.97;;
12812;SDS011;6471;50.932;6.934;2023-06-26T15:53:38;2.37;;;1.50;;
12812;SDS011;6471;50.932;6.934;2023-06-26T15:56:14;6.57;;;2.17;;
12812;SDS011;6471;50.932;6.934;2023-06-26T15:58:41;3.53;;;1.73;;
12812;SDS011;6471;50.932;6.934;2023-06-26T16:01:09;4.80;;;1.63;;
12812;SDS011;6471;50.932;6.934;2023-06-26T16:03:38;4.25;;;1.70;;
12812;SDS011;6471;50.932;6.934;2023-06-26T16:06:05;3.40;;;1.63;;
12812;SDS011;6471;50.932;6.934;2023-06-26T16:08:33;5.83;;;1.70;;
12812;SDS011;6471;50.932;6.934;2023-06-26T16:10:59;3.50;;;2.03;;
12812;SDS011;6471;50.932;6.934;2023-06-26T16:13:25;5.27;;;1.73;;
12812;SDS011;6471;50.932;6.934;2023-06-26T16:15:51;3.73;;;1.80;;
12812;SDS011;6471;50.932;6.934;2023-06-26T16:18:20;5.80;;;1.80;;
12812;SDS011;6471;50.932;6.934;2023-06-26T16:20:46;1.67;;;1.40;;
12812;SDS011;6471;50.932;6.934;2023-06-26T16:23:12;3.50;;;1.53;;
12812;SDS011;6471;50.932;6.934;2023-06-26T16:25:51;4.40;;;1.73;;
12812;SDS011;6471;50.932;6.934;2023-06-26T16:28:35;3.77;;;1.87;;
12812;SDS011;6471;50.932;6.934;2023-06-26T16:31:39;4.33;;;1.93;;
12812;SDS011;6471;50.932;6.934;2023-06-26T16:36:48;4.77;;;1.63;;
12812;SDS011;6471;50.932;6.934;2023-06-26T16:39:20;2.77;;;1.60;;
12812;SDS011;6471;50.932;6.934;2023-06-26T16:41:47;2.77;;;1.53;;
12812;SDS011;6471;50.932;6.934;2023-06-26T16:44:19;2.93;;;1.83;;
12812;SDS011;6471;50.932;6.934;2023-06-26T16:46:45;3.57;;;2.23;;
12812;SDS011;6471;50.932;6.934;2023-06-26T16:49:26;4.47;;;2.00;;
12812;SDS011;6471;50.932;6.934;2023-06-26T16:51:55;4.33;;;2.00;;
12812;SDS011;6471;50.932;6.934;2023-06-26T16:54:22;2.80;;;1.70;;
12812;SDS011;6471;50.932;6.934;2023-06-26T16:56:49;3.50;;;1.83;;
12812;SDS011;6471;50.932;6.934;2023-06-26T16:59:19;3.90;;;2.00;;
12812;SDS011;6471;50.932;6.934;2023-06-26T17:01:45;4.40;;;1.63;;
12812;SDS011;6471;50.932;6.934;2023-06-26T17:04:25;3.53;;;1.67;;
12812;SDS011;6471;50.932;6.934;2023-06-26T17:06:51;3.87;;;1.77;;
12812;SDS011;6471;50.932;6.934;2023-06-26T17:09:17;3.83;;;1.40;;
12812;SDS011;6471;50.932;6.934;2023-06-26T17:11:44;3.57;;;1.63;;
12812;SDS011;6471;50.932;6.934;2023-06-26T17:14:19;4.17;;;2.00;;
12812;SDS011;6471;50.932;6.934;2023-06-26T17:16:45;2.20;;;1.67;;
12812;SDS011;6471;50.932;6.934;2023-06-26T17:19:12;3.60;;;1.60;;
12812;SDS011;6471;50.932;6.934;2023-06-26T17:21:40;4.43;;;1.87;;
12812;SDS011;6471;50.932;6.934;2023-06-26T17:24:12;4.40;;;1.63;;
12812;SDS011;6471;50.932;6.934;2023-06-26T17:26:52;3.57;;;1.60;;
12812;SDS011;6471;50.932;6.934;2023-06-26T17:29:18;4.57;;;1.63;;
12812;SDS011;6471;50.932;6.934;2023-06-26T17:31:59;3.70;;;1.73;;
12812;SDS011;6471;50.932;6.934;2023-06-26T17:34:29;3.63;;;1.57;;
12812;SDS011;6471;50.932;6.934;2023-06-26T17:36:55;3.80;;;1.90;;
12812;SDS011;6471;50.932;6.934;2023-06-26T17:39:21;2.90;;;1.70;;
12812;SDS011;6471;50.932;6.934;2023-06-26T17:41:51;1.93;;;1.40;;
12812;SDS011;6471;50.932;6.934;2023-06-26T17:44:41;1.80;;;1.50;;
12812;SDS011;6471;50.932;6.934;2023-06-26T17:47:07;4.80;;;1.70;;
12812;SDS011;6471;50.932;6.934;2023-06-26T17:49:36;5.43;;;1.80;;
12812;SDS011;6471;50.932;6.934;2023-06-26T17:54:44;4.53;;;1.90;;
12812;SDS011;6471;50.932;6.934;2023-06-26T17:57:14;2.80;;;1.73;;
12812;SDS011;6471;50.932;6.934;2023-06-26T17:59:51;2.80;;;1.63;;
12812;SDS011;6471;50.932;6.934;2023-06-26T18:05:21;2.23;;;1.60;;
12812;SDS011;6471;50.932;6.934;2023-06-26T18:07:51;2.93;;;1.50;;
12812;SDS011;6471;50.932;6.934;2023-06-26T18:10:36;3.43;;;1.80;;
12812;SDS011;6471;50.932;6.934;2023-06-26T18:13:21;2.33;;;1.60;;
12812;SDS011;6471;50.932;6.934;2023-06-26T18:15:47;2.13;;;1.47;;
12812;SDS011;6471;50.932;6.934;2023-06-26T18:18:19;2.63;;;1.60;;
12812;SDS011;6471;50.932;6.934;2023-06-26T18:21:04;2.00;;;1.50;;
12812;SDS011;6471;50.932;6.934;2023-06-26T18:23:31;4.07;;;1.83;;
12812;SDS011;6471;50.932;6.934;2023-06-26T18:25:59;4.03;;;1.80;;
12812;SDS011;6471;50.932;6.934;2023-06-26T18:28:27;4.47;;;1.80;;
12812;SDS011;6471;50.932;6.934;2023-06-26T18:31:13;2.03;;;1.57;;
12812;SDS011;6471;50.932;6.934;2023-06-26T18:33:39;1.83;;;1.50;;
12812;SDS011;6471;50.932;6.934;2023-06-26T18:36:05;1.83;;;1.40;;
12812;SDS011;6471;50.932;6.934;2023-06-26T18:38:34;3.33;;;1.57;;
12812;SDS011;6471;50.932;6.934;2023-06-26T18:41:01;3.63;;;1.60;;
12812;SDS011;6471;50.932;6.934;2023-06-26T18:43:27;2.47;;;1.60;;
12812;SDS011;6471;50.932;6.934;2023-06-26T18:45:56;2.53;;;1.70;;
12812;SDS011;6471;50.932;6.934;2023-06-26T18:51:17;2.50;;;1.57;;
12812;SDS011;6471;50.932;6.934;2023-06-26T18:53:44;1.97;;;1.27;;
12812;SDS011;6471;50.932;6.934;2023-06-26T18:56:11;3.10;;;1.57;;
12812;SDS011;6471;50.932;6.934;2023-06-26T18:58:40;2.90;;;1.60;;
12812;SDS011;6471;50.932;6.934;2023-06-26T19:01:10;6.40;;;1.50;;
12812;SDS011;6471;50.932;6.934;2023-06-26T19:03:38;3.57;;;1.60;;
12812;SDS011;6471;50.932;6.934;2023-06-26T19:06:08;1.67;;;1.30;;
12812;SDS011;6471;50.932;6.934;2023-06-26T19:08:34;2.40;;;1.60;;
12812;SDS011;6471;50.932;6.934;2023-06-26T19:11:00;2.70;;;1.50;;
12812;SDS011;6471;50.932;6.934;2023-06-26T19:13:34;2.30;;;1.60;;
12812;SDS011;6471;50.932;6.934;2023-06-26T19:29:58;3.33;;;1.60;;
12812;SDS011;6471;50.932;6.934;2023-06-26T19:35:31;3.10;;;1.23;;
12812;SDS011;6471;50.932;6.934;2023-06-26T19:38:00;2.90;;;1.50;;
12812;SDS011;6471;50.932;6.934;2023-06-26T19:40:37;1.40;;;1.20;;
12812;SDS011;6471;50.932;6.934;2023-06-26T19:43:16;1.90;;;1.60;;
12812;SDS011;6471;50.932;6.934;2023-06-26T19:46:05;2.33;;;1.30;;
12812;SDS011;6471;50.932;6.934;2023-06-26T19:56:42;4.07;;;1.53;;
12812;SDS011;6471;50.932;6.934;2023-06-26T20:27:12;2.63;;;1.40;;
12812;SDS011;6471;50.932;6.934;2023-06-26T20:29:57;2.60;;;1.43;;
12812;SDS011;6471;50.932;6.934;2023-06-26T20:32:32;3.60;;;1.40;;
12812;SDS011;6471;50.932;6.934;2023-06-26T20:35:17;3.47;;;1.47;;
12812;SDS011;6471;50.932;6.934;2023-06-26T20:55:45;2.10;;;1.30;;
12812;SDS011;6471;50.932;6.934;2023-06-26T20:58:35;1.67;;;1.30;;
12812;SDS011;6471;50.932;6.934;2023-06-26T21:03:40;2.10;;;1.50;;
12812;SDS011;6471;50.932;6.934;2023-06-26T21:23:34;2.37;;;1.70;;
12812;SDS011;6471;50.932;6.934;2023-06-26T21:32:23;3.63;;;1.60;;
12812;SDS011;6471;50.932;6.934;2023-06-26T21:59:34;2.90;;;1.50;;
12812;SDS011;6471;50.932;6.934;2023-06-26T22:02:00;2.27;;;1.43;;
12812;SDS011;6471;50.932;6.934;2023-06-26T22:04:46;2.37;;;1.50;;
12812;SDS011;6471;50.932;6.934;2023-06-26T22:07:41;2.20;;;1.60;;
12812;SDS011;6471;50.932;6.934;2023-06-26T22:12:53;2.57;;;1.50;;
12812;SDS011;6471;50.932;6.934;2023-06-26T22:15:33;1.77;;;1.50;;
12812;SDS011;6471;50.932;6.934;2023-06-26T22:18:24;4.17;;;1.83;;
12812;SDS011;6471;50.932;6.934;2023-06-26T22:24:01;3.37;;;1.70;;
12812;SDS011;6471;50.932;6.934;2023-06-26T22:26:27;4.17;;;1.70;;
12812;SDS011;6471;50.932;6.934;2023-06-26T22:34:52;2.77;;;1.33;;
12812;SDS011;6471;50.932;6.934;2023-06-26T22:40:47;1.97;;;1.40;;
12812;SDS011;6471;50.932;6.934;2023-06-26T22:46:38;1.40;;;1.30;;
12812;SDS011;6471;50.932;6.934;2023-06-26T22:49:07;3.97;;;1.73;;
12812;SDS011;6471;50.932;6.934;2023-06-26T22:51:43;4.00;;;1.87;;